createdAt,value
2016-09-27T00:00:09.157Z,0
2016-09-27T00:01:09.136Z,0
2016-09-27T00:02:09.113Z,0
2016-09-27T00:03:09.090Z,0
2016-09-27T00:04:09.068Z,0
2016-09-27T00:05:09.048Z,0
2016-09-27T00:06:09.019Z,0
2016-09-27T00:07:09.000Z,0
2016-09-27T00:08:08.973Z,0
2016-09-27T00:09:08.954Z,0
2016-09-27T00:10:08.918Z,0
2016-09-27T00:11:08.898Z,0
2016-09-27T00:12:08.876Z,0
2016-09-27T00:13:08.865Z,0
2016-09-27T00:14:08.828Z,0
2016-09-27T00:15:09.106Z,0
2016-09-27T00:16:08.802Z,0
2016-09-27T00:17:08.761Z,0
2016-09-27T00:18:08.737Z,0
2016-09-27T00:19:08.719Z,0
2016-09-27T00:20:08.696Z,0
2016-09-27T00:21:08.667Z,0
2016-09-27T00:22:08.638Z,0
2016-09-27T00:23:08.610Z,0
2016-09-27T00:24:08.596Z,0
2016-09-27T00:25:08.879Z,0
2016-09-27T00:26:08.548Z,0
2016-09-27T00:27:08.523Z,0
2016-09-27T00:28:08.503Z,0
2016-09-27T00:29:08.475Z,0
2016-09-27T00:30:08.453Z,0
2016-09-27T00:31:08.430Z,0
2016-09-27T00:32:08.422Z,0
2016-09-27T00:33:08.382Z,0
2016-09-27T00:34:08.358Z,0
2016-09-27T00:35:08.354Z,0
2016-09-27T00:36:08.313Z,0
2016-09-27T00:37:08.292Z,0
2016-09-27T00:38:08.273Z,0
2016-09-27T00:39:08.250Z,0
2016-09-27T00:40:08.228Z,0
2016-09-27T00:41:08.237Z,0
2016-09-27T00:42:08.173Z,0
2016-09-27T00:43:08.140Z,0
2016-09-27T00:44:08.121Z,0
2016-09-27T00:45:08.102Z,0
2016-09-27T00:46:08.080Z,0
2016-09-27T00:47:08.051Z,0
2016-09-27T00:48:08.029Z,0
2016-09-27T00:49:08.008Z,0
2016-09-27T00:50:07.981Z,0
2016-09-27T00:51:07.955Z,0
2016-09-27T00:52:07.932Z,0
2016-09-27T00:53:07.914Z,0
2016-09-27T00:54:07.884Z,0
2016-09-27T00:55:07.860Z,0
2016-09-27T00:56:07.838Z,0
2016-09-27T00:57:07.808Z,0
2016-09-27T00:58:07.787Z,0
2016-09-27T00:59:07.764Z,0
2016-09-27T01:00:07.748Z,0
2016-09-27T01:01:07.721Z,0
2016-09-27T01:02:07.695Z,0
2016-09-27T01:03:07.670Z,0
2016-09-27T01:04:07.651Z,0
2016-09-27T01:05:07.626Z,0
2016-09-27T01:06:07.607Z,0
2016-09-27T01:07:07.577Z,0
2016-09-27T01:08:07.553Z,0
2016-09-27T01:09:07.534Z,0
2016-09-27T01:10:07.505Z,0
2016-09-27T01:11:07.490Z,0
2016-09-27T01:12:07.462Z,0
2016-09-27T01:13:07.435Z,0
2016-09-27T01:14:07.412Z,0
2016-09-27T01:15:07.396Z,0
2016-09-27T01:16:07.365Z,0
2016-09-27T01:17:07.371Z,0
2016-09-27T01:18:07.321Z,0
2016-09-27T01:19:07.295Z,0
2016-09-27T01:20:07.280Z,0
2016-09-27T01:21:07.252Z,0
2016-09-27T01:22:07.234Z,0
2016-09-27T01:23:07.196Z,0
2016-09-27T01:24:07.189Z,0
2016-09-27T01:25:07.169Z,0
2016-09-27T01:26:07.145Z,0
2016-09-27T01:27:07.111Z,0
2016-09-27T01:28:07.101Z,0
2016-09-27T01:29:07.062Z,0
2016-09-27T01:30:07.035Z,0
2016-09-27T01:31:07.005Z,0
2016-09-27T01:32:06.991Z,0
2016-09-27T01:33:06.962Z,0
2016-09-27T01:34:06.944Z,0
2016-09-27T01:35:06.919Z,0
2016-09-27T01:36:06.895Z,0
2016-09-27T01:37:06.884Z,0
2016-09-27T01:38:06.855Z,0
2016-09-27T01:39:06.820Z,0
2016-09-27T01:40:06.804Z,0
2016-09-27T01:41:06.787Z,0
2016-09-27T01:42:06.764Z,0
2016-09-27T01:43:06.729Z,0
2016-09-27T01:44:06.705Z,0
2016-09-27T01:45:06.680Z,0
2016-09-27T01:46:06.656Z,0
2016-09-27T01:47:06.635Z,0
2016-09-27T01:48:06.612Z,0
2016-09-27T01:49:06.591Z,0
2016-09-27T01:50:06.562Z,0
2016-09-27T01:51:06.537Z,0
2016-09-27T01:52:06.516Z,0
2016-09-27T01:53:06.491Z,0
2016-09-27T01:54:06.472Z,0
2016-09-27T01:55:06.443Z,0
2016-09-27T01:56:06.424Z,0
2016-09-27T01:57:06.395Z,0
2016-09-27T01:58:06.373Z,0
2016-09-27T01:59:06.349Z,0
2016-09-27T02:00:06.318Z,0
2016-09-27T02:01:06.311Z,0
2016-09-27T02:02:06.577Z,0
2016-09-27T02:03:06.247Z,0
2016-09-27T02:04:06.227Z,0
2016-09-27T02:05:06.203Z,0
2016-09-27T02:06:06.179Z,0
2016-09-27T02:07:06.454Z,0
2016-09-27T02:08:06.124Z,0
2016-09-27T02:09:06.118Z,0
2016-09-27T02:10:06.121Z,0
2016-09-27T02:11:06.056Z,0
2016-09-27T02:12:06.035Z,0
2016-09-27T02:13:06.006Z,0
2016-09-27T02:14:05.987Z,0
2016-09-27T02:15:05.957Z,0
2016-09-27T02:16:05.935Z,0
2016-09-27T02:17:05.915Z,0
2016-09-27T02:18:05.887Z,0
2016-09-27T02:19:05.865Z,0
2016-09-27T02:20:05.845Z,0
2016-09-27T02:21:05.807Z,0
2016-09-27T02:22:05.797Z,0
2016-09-27T02:23:05.767Z,0
2016-09-27T02:24:05.754Z,0
2016-09-27T02:25:05.721Z,0
2016-09-27T02:26:05.685Z,0
2016-09-27T02:27:05.669Z,0
2016-09-27T02:28:05.646Z,0
2016-09-27T02:29:05.621Z,0
2016-09-27T02:30:05.595Z,0
2016-09-27T02:31:05.573Z,0
2016-09-27T02:32:05.545Z,0
2016-09-27T02:33:05.525Z,0
2016-09-27T02:34:05.499Z,0
2016-09-27T02:35:05.476Z,0
2016-09-27T02:36:05.445Z,0
2016-09-27T02:37:05.426Z,0
2016-09-27T02:38:05.399Z,0
2016-09-27T02:39:05.379Z,0
2016-09-27T02:40:05.349Z,0
2016-09-27T02:41:05.322Z,0
2016-09-27T02:42:05.609Z,0
2016-09-27T02:43:05.282Z,0
2016-09-27T02:44:05.289Z,0
2016-09-27T02:45:05.240Z,0
2016-09-27T02:46:05.210Z,0
2016-09-27T02:47:05.183Z,0
2016-09-27T02:48:05.156Z,0
2016-09-27T02:49:05.440Z,0
2016-09-27T02:50:05.104Z,0
2016-09-27T02:51:05.097Z,0
2016-09-27T02:52:05.057Z,0
2016-09-27T02:53:05.033Z,0
2016-09-27T02:54:05.009Z,0
2016-09-27T02:55:04.985Z,0
2016-09-27T02:56:05.265Z,0
2016-09-27T02:57:04.936Z,0
2016-09-27T02:58:04.914Z,0
2016-09-27T02:59:04.894Z,0
2016-09-27T03:00:04.862Z,0
2016-09-27T03:01:04.839Z,0
2016-09-27T03:02:04.812Z,0
2016-09-27T03:03:04.791Z,0
2016-09-27T03:04:05.066Z,0
2016-09-27T03:05:04.758Z,0
2016-09-27T03:06:04.721Z,0
2016-09-27T03:07:04.693Z,0
2016-09-27T03:08:04.670Z,0
2016-09-27T03:09:04.643Z,0
2016-09-27T03:10:04.618Z,0
2016-09-27T03:11:04.596Z,0
2016-09-27T03:12:04.571Z,0
2016-09-27T03:13:04.555Z,0
2016-09-27T03:14:04.524Z,0
2016-09-27T03:15:04.506Z,0
2016-09-27T03:16:04.480Z,0
2016-09-27T03:17:04.457Z,0
2016-09-27T03:18:04.436Z,0
2016-09-27T03:19:04.456Z,0
2016-09-27T03:20:04.379Z,0
2016-09-27T03:21:04.350Z,0
2016-09-27T03:22:04.336Z,0
2016-09-27T03:23:04.311Z,0
2016-09-27T03:24:04.287Z,0
2016-09-27T03:25:04.259Z,0
2016-09-27T03:26:04.234Z,0
2016-09-27T03:27:04.204Z,0
2016-09-27T03:28:04.188Z,0
2016-09-27T03:29:04.164Z,0
2016-09-27T03:30:04.141Z,0
2016-09-27T03:31:04.112Z,0
2016-09-27T03:32:04.097Z,0
2016-09-27T03:33:04.066Z,0
2016-09-27T03:34:04.052Z,0
2016-09-27T03:35:04.012Z,0
2016-09-27T03:36:04.006Z,0
2016-09-27T03:37:03.971Z,0
2016-09-27T03:38:04.256Z,0
2016-09-27T03:39:03.921Z,0
2016-09-27T03:40:04.208Z,0
2016-09-27T03:41:03.876Z,0
2016-09-27T03:42:03.857Z,0
2016-09-27T03:43:03.844Z,0
2016-09-27T03:44:03.816Z,0
2016-09-27T03:45:03.776Z,0
2016-09-27T03:46:03.746Z,0
2016-09-27T03:47:03.727Z,0
2016-09-27T03:48:03.700Z,0
2016-09-27T03:49:03.677Z,0
2016-09-27T03:50:03.661Z,0
2016-09-27T03:51:03.630Z,0
2016-09-27T03:52:03.606Z,0
2016-09-27T03:53:03.577Z,0
2016-09-27T03:54:03.574Z,0
2016-09-27T03:55:03.531Z,0
2016-09-27T03:56:03.506Z,0
2016-09-27T03:57:03.484Z,0
2016-09-27T03:58:03.462Z,0
2016-09-27T03:59:03.432Z,0
2016-09-27T04:00:03.409Z,0
2016-09-27T04:01:03.386Z,0
2016-09-27T04:02:03.358Z,0
2016-09-27T04:03:03.333Z,0
2016-09-27T04:04:03.309Z,0
2016-09-27T04:05:03.291Z,0
2016-09-27T04:06:03.264Z,0
2016-09-27T04:07:03.241Z,0
2016-09-27T04:08:03.213Z,0
2016-09-27T04:09:03.200Z,0
2016-09-27T04:10:03.507Z,0
2016-09-27T04:11:03.142Z,0
2016-09-27T04:12:03.115Z,0
2016-09-27T04:13:03.105Z,0
2016-09-27T04:14:03.070Z,0
2016-09-27T04:15:03.056Z,0
2016-09-27T04:16:03.012Z,0
2016-09-27T04:17:02.996Z,0
2016-09-27T04:18:02.971Z,0
2016-09-27T04:19:02.950Z,0
2016-09-27T04:20:02.918Z,0
2016-09-27T04:21:02.894Z,0
2016-09-27T04:22:02.870Z,0
2016-09-27T04:23:02.838Z,0
2016-09-27T04:24:02.813Z,0
2016-09-27T04:25:02.791Z,0
2016-09-27T04:26:02.769Z,0
2016-09-27T04:27:02.739Z,0
2016-09-27T04:28:02.717Z,0
2016-09-27T04:29:02.692Z,0
2016-09-27T04:30:02.686Z,0
2016-09-27T04:31:02.652Z,0
2016-09-27T04:32:02.617Z,0
2016-09-27T04:33:02.596Z,0
2016-09-27T04:34:02.867Z,0
2016-09-27T04:35:02.546Z,0
2016-09-27T04:36:02.533Z,0
2016-09-27T04:37:02.493Z,0
2016-09-27T04:38:02.463Z,0
2016-09-27T04:39:02.462Z,0
2016-09-27T04:40:02.424Z,0
2016-09-27T04:41:02.394Z,0
2016-09-27T04:42:02.366Z,0
2016-09-27T04:43:02.341Z,0
2016-09-27T04:44:02.323Z,0
2016-09-27T04:45:02.298Z,0
2016-09-27T04:46:02.262Z,0
2016-09-27T04:47:02.240Z,0
2016-09-27T04:48:02.521Z,0
2016-09-27T04:49:02.189Z,0
2016-09-27T04:50:02.163Z,0
2016-09-27T04:51:02.156Z,0
2016-09-27T04:52:02.120Z,0
2016-09-27T04:53:02.102Z,0
2016-09-27T04:54:02.064Z,0
2016-09-27T04:55:02.055Z,0
2016-09-27T04:56:02.011Z,0
2016-09-27T04:57:02.043Z,0
2016-09-27T04:58:01.961Z,0
2016-09-27T04:59:01.953Z,0
2016-09-27T05:00:01.917Z,0
2016-09-27T05:01:01.884Z,0
2016-09-27T05:02:01.866Z,0
2016-09-27T05:03:01.836Z,0
2016-09-27T05:04:01.813Z,0
2016-09-27T05:05:01.790Z,0
2016-09-27T05:06:01.761Z,0
2016-09-27T05:07:01.735Z,0
2016-09-27T05:08:01.717Z,0
2016-09-27T05:09:01.692Z,0
2016-09-27T05:10:01.667Z,0
2016-09-27T05:11:01.647Z,0
2016-09-27T05:12:01.618Z,0
2016-09-27T05:13:01.589Z,5
2016-09-27T05:14:01.567Z,5
2016-09-27T05:15:01.537Z,5
2016-09-27T05:16:01.515Z,5
2016-09-27T05:17:01.485Z,5
2016-09-27T05:18:01.466Z,10
2016-09-27T05:19:01.434Z,10
2016-09-27T05:20:01.409Z,10
2016-09-27T05:21:01.389Z,10
2016-09-27T05:22:01.362Z,15
2016-09-27T05:23:01.337Z,15
2016-09-27T05:24:01.325Z,15
2016-09-27T05:25:01.290Z,20
2016-09-27T05:26:01.257Z,20
2016-09-27T05:27:01.237Z,20
2016-09-27T05:28:01.225Z,25
2016-09-27T05:29:01.184Z,25
2016-09-27T05:30:01.160Z,25
2016-09-27T05:31:01.146Z,30
2016-09-27T05:32:01.126Z,30
2016-09-27T05:33:01.092Z,35
2016-09-27T05:34:01.053Z,35
2016-09-27T05:35:01.334Z,40
2016-09-27T05:36:01.015Z,40
2016-09-27T05:37:00.977Z,45
2016-09-27T05:38:01.250Z,50
2016-09-27T05:39:00.930Z,50
2016-09-27T05:40:00.918Z,55
2016-09-27T05:41:01.173Z,60
2016-09-27T05:42:00.851Z,60
2016-09-27T05:43:00.841Z,65
2016-09-27T05:44:00.801Z,70
2016-09-27T05:45:00.777Z,70
2016-09-27T05:46:00.753Z,75
2016-09-27T05:47:00.724Z,80
2016-09-27T05:48:00.706Z,80
2016-09-27T05:49:00.682Z,85
2016-09-27T05:50:00.962Z,90
2016-09-27T05:51:00.625Z,90
2016-09-27T05:52:00.608Z,95
2016-09-27T05:53:00.574Z,100
2016-09-27T05:54:00.554Z,100
2016-09-27T05:55:00.529Z,105
2016-09-27T05:56:00.504Z,110
2016-09-27T05:57:00.821Z,110
2016-09-27T05:58:00.453Z,115
2016-09-27T05:59:00.436Z,120
2016-09-27T06:00:00.605Z,120
2016-09-27T06:01:00.373Z,125
2016-09-27T06:02:00.346Z,130
2016-09-27T06:03:00.337Z,130
2016-09-27T06:04:00.302Z,135
2016-09-27T06:05:00.282Z,140
2016-09-27T06:06:00.257Z,140
2016-09-27T06:07:00.228Z,145
2016-09-27T06:08:00.196Z,145
2016-09-27T06:09:00.174Z,145
2016-09-27T06:10:00.150Z,150
2016-09-27T06:11:00.130Z,150
2016-09-27T06:12:00.096Z,155
2016-09-27T06:13:00.074Z,160
2016-09-27T06:14:00.047Z,160
2016-09-27T06:15:00.046Z,165
2016-09-27T06:15:59.998Z,165
2016-09-27T06:16:59.970Z,170
2016-09-27T06:17:59.948Z,175
2016-09-27T06:18:59.954Z,180
2016-09-27T06:19:59.889Z,180
2016-09-27T06:20:59.879Z,180
2016-09-27T06:21:59.847Z,185
2016-09-27T06:22:59.822Z,185
2016-09-27T06:23:59.796Z,190
2016-09-27T06:24:59.773Z,195
2016-09-27T06:25:59.748Z,195
2016-09-27T06:26:59.824Z,195
2016-09-27T06:27:59.701Z,200
2016-09-27T06:28:59.689Z,200
2016-09-27T06:29:59.650Z,205
2016-09-27T06:30:59.638Z,210
2016-09-27T06:31:59.597Z,210
2016-09-27T06:32:59.575Z,215
2016-09-27T06:33:59.551Z,215
2016-09-27T06:34:59.527Z,220
2016-09-27T06:35:59.500Z,220
2016-09-27T06:36:59.485Z,225
2016-09-27T06:37:59.564Z,225
2016-09-27T06:38:59.435Z,230
2016-09-27T06:39:59.403Z,230
2016-09-27T06:40:59.381Z,230
2016-09-27T06:41:59.362Z,235
2016-09-27T06:42:59.347Z,235
2016-09-27T06:43:59.314Z,240
2016-09-27T06:44:59.279Z,240
2016-09-27T06:45:59.257Z,245
2016-09-27T06:46:59.238Z,245
2016-09-27T06:47:59.209Z,245
2016-09-27T06:48:59.184Z,250
2016-09-27T06:49:59.160Z,250
2016-09-27T06:50:59.147Z,255
2016-09-27T06:51:59.114Z,255
2016-09-27T06:52:59.089Z,255
2016-09-27T06:53:59.065Z,255
2016-09-27T06:54:59.046Z,260
2016-09-27T06:55:59.044Z,260
2016-09-27T06:56:59.005Z,260
2016-09-27T06:57:58.966Z,265
2016-09-27T06:58:58.953Z,265
2016-09-27T06:59:58.920Z,265
2016-09-27T07:00:58.896Z,270
2016-09-27T07:01:58.879Z,270
2016-09-27T07:02:58.851Z,270
2016-09-27T07:03:58.828Z,275
2016-09-27T07:04:58.799Z,275
2016-09-27T07:05:58.778Z,275
2016-09-27T07:06:58.752Z,280
2016-09-27T07:07:58.735Z,280
2016-09-27T07:08:59.044Z,285
2016-09-27T07:09:58.684Z,285
2016-09-27T07:10:58.663Z,290
2016-09-27T07:11:58.637Z,290
2016-09-27T07:12:58.626Z,290
2016-09-27T07:13:58.597Z,295
2016-09-27T07:14:58.570Z,295
2016-09-27T07:15:58.536Z,295
2016-09-27T07:16:58.520Z,300
2016-09-27T07:17:58.497Z,300
2016-09-27T07:18:58.474Z,300
2016-09-27T07:19:58.451Z,305
2016-09-27T07:20:58.424Z,305
2016-09-27T07:21:58.407Z,305
2016-09-27T07:22:58.385Z,305
2016-09-27T07:23:58.366Z,305
2016-09-27T07:24:58.330Z,310
2016-09-27T07:25:58.327Z,310
2016-09-27T07:26:58.278Z,310
2016-09-27T07:27:58.282Z,315
2016-09-27T07:28:58.234Z,315
2016-09-27T07:29:58.211Z,315
2016-09-27T07:30:58.198Z,315
2016-09-27T07:31:58.469Z,320
2016-09-27T07:32:58.161Z,320
2016-09-27T07:33:58.121Z,320
2016-09-27T07:34:58.104Z,325
2016-09-27T07:35:58.078Z,325
2016-09-27T07:36:58.053Z,325
2016-09-27T07:37:58.341Z,325
2016-09-27T07:38:58.012Z,330
2016-09-27T07:39:57.985Z,330
2016-09-27T07:40:57.958Z,330
2016-09-27T07:41:57.939Z,330
2016-09-27T07:42:57.918Z,330
2016-09-27T07:43:57.889Z,335
2016-09-27T07:44:57.872Z,335
2016-09-27T07:45:57.845Z,340
2016-09-27T07:46:57.829Z,340
2016-09-27T07:47:57.806Z,340
2016-09-27T07:48:57.775Z,340
2016-09-27T07:49:57.768Z,340
2016-09-27T07:50:57.735Z,340
2016-09-27T07:51:57.711Z,340
2016-09-27T07:52:57.742Z,340
2016-09-27T07:53:57.669Z,340
2016-09-27T07:54:57.642Z,345
2016-09-27T07:55:57.626Z,345
2016-09-27T07:56:57.597Z,345
2016-09-27T07:57:57.579Z,345
2016-09-27T07:58:57.551Z,345
2016-09-27T07:59:57.531Z,345
2016-09-27T08:00:57.509Z,345
2016-09-27T08:01:57.487Z,345
2016-09-27T08:02:57.462Z,345
2016-09-27T08:03:57.440Z,345
2016-09-27T08:04:57.415Z,350
2016-09-27T08:05:57.401Z,350
2016-09-27T08:06:57.377Z,350
2016-09-27T08:07:57.354Z,350
2016-09-27T08:08:57.335Z,350
2016-09-27T08:09:57.314Z,350
2016-09-27T08:10:57.291Z,355
2016-09-27T08:11:57.267Z,355
2016-09-27T08:12:57.245Z,355
2016-09-27T08:13:57.223Z,355
2016-09-27T08:14:57.200Z,355
2016-09-27T08:15:57.190Z,355
2016-09-27T08:16:57.159Z,360
2016-09-27T08:17:57.139Z,360
2016-09-27T08:18:57.114Z,360
2016-09-27T08:19:57.106Z,360
2016-09-27T08:20:57.072Z,360
2016-09-27T08:21:57.054Z,365
2016-09-27T08:22:57.033Z,365
2016-09-27T08:23:57.008Z,365
2016-09-27T08:24:56.987Z,365
2016-09-27T08:25:56.964Z,365
2016-09-27T08:26:56.949Z,365
2016-09-27T08:27:56.918Z,365
2016-09-27T08:28:56.900Z,365
2016-09-27T08:29:56.879Z,365
2016-09-27T08:30:56.857Z,370
2016-09-27T08:31:56.831Z,370
2016-09-27T08:32:56.815Z,370
2016-09-27T08:33:56.787Z,370
2016-09-27T08:34:56.765Z,370
2016-09-27T08:35:56.758Z,375
2016-09-27T08:36:56.728Z,370
2016-09-27T08:37:56.705Z,370
2016-09-27T08:38:56.685Z,370
2016-09-27T08:39:56.661Z,370
2016-09-27T08:40:56.652Z,370
2016-09-27T08:41:56.629Z,370
2016-09-27T08:42:56.602Z,370
2016-09-27T08:43:56.580Z,370
2016-09-27T08:44:56.562Z,370
2016-09-27T08:45:56.541Z,370
2016-09-27T08:46:56.527Z,370
2016-09-27T08:47:56.499Z,370
2016-09-27T08:48:56.520Z,370
2016-09-27T08:49:56.456Z,370
2016-09-27T08:50:56.437Z,370
2016-09-27T08:51:56.414Z,370
2016-09-27T08:52:56.394Z,370
2016-09-27T08:53:56.366Z,370
2016-09-27T08:54:56.357Z,370
2016-09-27T08:55:56.342Z,375
2016-09-27T08:56:56.310Z,375
2016-09-27T08:57:56.293Z,375
2016-09-27T08:58:56.279Z,375
2016-09-27T08:59:56.249Z,375
2016-09-27T09:00:56.233Z,375
2016-09-27T09:01:56.204Z,375
2016-09-27T09:02:56.189Z,375
2016-09-27T09:03:56.164Z,375
2016-09-27T09:04:56.141Z,375
2016-09-27T09:05:56.128Z,375
2016-09-27T09:06:56.109Z,375
2016-09-27T09:07:56.085Z,375
2016-09-27T09:08:56.069Z,375
2016-09-27T09:09:56.040Z,375
2016-09-27T09:10:56.042Z,375
2016-09-27T09:11:56.017Z,385
2016-09-27T09:12:55.982Z,380
2016-09-27T09:13:55.991Z,380
2016-09-27T09:14:55.943Z,380
2016-09-27T09:15:55.927Z,380
2016-09-27T09:16:55.906Z,380
2016-09-27T09:17:55.882Z,380
2016-09-27T09:18:55.865Z,380
2016-09-27T09:19:55.846Z,380
2016-09-27T09:20:55.824Z,380
2016-09-27T09:21:55.805Z,380
2016-09-27T09:22:55.779Z,380
2016-09-27T09:23:55.769Z,380
2016-09-27T09:24:55.743Z,385
2016-09-27T09:25:55.719Z,385
2016-09-27T09:26:55.705Z,385
2016-09-27T09:27:55.695Z,385
2016-09-27T09:28:55.668Z,385
2016-09-27T09:29:55.647Z,385
2016-09-27T09:30:55.622Z,385
2016-09-27T09:31:55.602Z,385
2016-09-27T09:32:55.602Z,385
2016-09-27T09:33:55.567Z,385
2016-09-27T09:34:55.544Z,385
2016-09-27T09:35:55.529Z,385
2016-09-27T09:36:55.520Z,385
2016-09-27T09:37:55.482Z,385
2016-09-27T09:38:55.472Z,385
2016-09-27T09:39:55.452Z,385
2016-09-27T09:40:55.428Z,385
2016-09-27T09:41:55.414Z,385
2016-09-27T09:42:55.389Z,385
2016-09-27T09:43:55.375Z,385
2016-09-27T09:44:55.355Z,385
2016-09-27T09:45:55.332Z,385
2016-09-27T09:46:55.313Z,385
2016-09-27T09:47:55.291Z,385
2016-09-27T09:48:55.273Z,385
2016-09-27T09:49:55.257Z,390
2016-09-27T09:50:55.241Z,385
2016-09-27T09:51:55.220Z,385
2016-09-27T09:52:55.197Z,385
2016-09-27T09:53:55.174Z,385
2016-09-27T09:54:55.162Z,390
2016-09-27T09:55:55.137Z,390
2016-09-27T09:56:55.123Z,390
2016-09-27T09:57:55.100Z,390
2016-09-27T09:58:55.079Z,385
2016-09-27T09:59:55.062Z,375
2016-09-27T10:00:55.044Z,375
2016-09-27T10:01:55.021Z,395
2016-09-27T10:02:55.023Z,395
2016-09-27T10:03:55.299Z,395
2016-09-27T10:04:54.972Z,395
2016-09-27T10:05:54.951Z,400
2016-09-27T10:06:54.928Z,400
2016-09-27T10:07:54.913Z,395
2016-09-27T10:08:54.888Z,395
2016-09-27T10:09:54.878Z,395
2016-09-27T10:10:54.866Z,395
2016-09-27T10:11:54.841Z,395
2016-09-27T10:12:54.876Z,400
2016-09-27T10:13:54.805Z,400
2016-09-27T10:14:54.782Z,400
2016-09-27T10:15:54.780Z,405
2016-09-27T10:16:54.741Z,405
2016-09-27T10:17:54.737Z,405
2016-09-27T10:18:54.709Z,405
2016-09-27T10:19:54.687Z,405
2016-09-27T10:20:54.969Z,405
2016-09-27T10:21:54.660Z,410
2016-09-27T10:22:54.635Z,415
2016-09-27T10:23:54.615Z,410
2016-09-27T10:24:54.886Z,410
2016-09-27T10:25:54.583Z,410
2016-09-27T10:26:54.568Z,415
2016-09-27T10:27:54.545Z,425
2016-09-27T10:28:54.518Z,430
2016-09-27T10:29:54.501Z,440
2016-09-27T10:30:54.484Z,450
2016-09-27T10:31:54.466Z,455
2016-09-27T10:32:54.451Z,455
2016-09-27T10:33:54.430Z,460
2016-09-27T10:34:54.409Z,460
2016-09-27T10:35:54.695Z,460
2016-09-27T10:36:54.377Z,465
2016-09-27T10:37:54.358Z,485
2016-09-27T10:38:54.337Z,510
2016-09-27T10:39:54.319Z,520
2016-09-27T10:40:54.305Z,530
2016-09-27T10:41:54.286Z,530
2016-09-27T10:42:54.265Z,530
2016-09-27T10:43:54.247Z,530
2016-09-27T10:44:54.224Z,535
2016-09-27T10:45:54.211Z,520
2016-09-27T10:46:54.199Z,520
2016-09-27T10:47:54.174Z,515
2016-09-27T10:48:54.156Z,505
2016-09-27T10:49:54.138Z,500
2016-09-27T10:50:54.128Z,510
2016-09-27T10:51:54.107Z,540
2016-09-27T10:52:54.086Z,555
2016-09-27T10:53:54.069Z,555
2016-09-27T10:54:54.055Z,550
2016-09-27T10:55:54.116Z,560
2016-09-27T10:56:54.020Z,565
2016-09-27T10:57:54.040Z,560
2016-09-27T10:58:53.979Z,560
2016-09-27T10:59:53.970Z,570
2016-09-27T11:00:53.958Z,605
2016-09-27T11:01:53.947Z,630
2016-09-27T11:02:53.921Z,645
2016-09-27T11:03:53.894Z,630
2016-09-27T11:04:53.884Z,605
2016-09-27T11:05:53.870Z,585
2016-09-27T11:06:53.851Z,585
2016-09-27T11:07:53.832Z,590
2016-09-27T11:08:53.818Z,595
2016-09-27T11:09:54.103Z,595
2016-09-27T11:10:53.788Z,605
2016-09-27T11:11:53.761Z,600
2016-09-27T11:12:53.753Z,585
2016-09-27T11:13:53.734Z,570
2016-09-27T11:14:53.714Z,555
2016-09-27T11:15:53.703Z,535
2016-09-27T11:16:53.690Z,540
2016-09-27T11:17:53.679Z,545
2016-09-27T11:18:53.647Z,540
2016-09-27T11:19:53.736Z,530
2016-09-27T11:20:53.620Z,515
2016-09-27T11:21:53.681Z,510
2016-09-27T11:22:53.583Z,505
2016-09-27T11:23:53.567Z,490
2016-09-27T11:24:53.553Z,490
2016-09-27T11:25:53.528Z,510
2016-09-27T11:26:53.521Z,535
2016-09-27T11:27:53.502Z,545
2016-09-27T11:28:53.482Z,565
2016-09-27T11:29:53.466Z,555
2016-09-27T11:30:53.572Z,550
2016-09-27T11:31:53.438Z,560
2016-09-27T11:32:53.419Z,555
2016-09-27T11:33:53.694Z,535
2016-09-27T11:34:53.389Z,530
2016-09-27T11:35:53.375Z,530
2016-09-27T11:36:53.349Z,550
2016-09-27T11:37:53.336Z,570
2016-09-27T11:38:53.319Z,580
2016-09-27T11:39:53.301Z,575
2016-09-27T11:40:53.289Z,580
2016-09-27T11:41:53.571Z,575
2016-09-27T11:42:53.270Z,570
2016-09-27T11:43:53.246Z,560
2016-09-27T11:44:53.224Z,540
2016-09-27T11:45:53.217Z,520
2016-09-27T11:46:53.193Z,500
2016-09-27T11:47:53.171Z,465
2016-09-27T11:48:53.156Z,435
2016-09-27T11:49:53.147Z,435
2016-09-27T11:50:53.126Z,440
2016-09-27T11:51:53.106Z,445
2016-09-27T11:52:53.092Z,440
2016-09-27T11:53:53.079Z,430
2016-09-27T11:54:53.059Z,430
2016-09-27T11:55:53.051Z,435
2016-09-27T11:56:53.029Z,435
2016-09-27T11:57:53.006Z,435
2016-09-27T11:58:52.992Z,445
2016-09-27T11:59:52.977Z,440
2016-09-27T12:00:52.961Z,445
2016-09-27T12:01:52.948Z,445
2016-09-27T12:02:52.984Z,450
2016-09-27T12:03:52.913Z,450
2016-09-27T12:04:52.902Z,450
2016-09-27T12:05:52.882Z,450
2016-09-27T12:06:52.863Z,450
2016-09-27T12:07:52.855Z,450
2016-09-27T12:08:52.832Z,450
2016-09-27T12:09:52.810Z,450
2016-09-27T12:10:53.110Z,450
2016-09-27T12:11:52.796Z,450
2016-09-27T12:12:52.769Z,445
2016-09-27T12:13:52.752Z,445
2016-09-27T12:14:52.750Z,455
2016-09-27T12:15:52.723Z,455
2016-09-27T12:16:52.700Z,460
2016-09-27T12:17:52.704Z,465
2016-09-27T12:18:52.669Z,470
2016-09-27T12:19:52.661Z,475
2016-09-27T12:20:52.638Z,490
2016-09-27T12:21:52.619Z,500
2016-09-27T12:22:52.613Z,505
2016-09-27T12:23:52.597Z,510
2016-09-27T12:24:52.589Z,515
2016-09-27T12:25:52.566Z,520
2016-09-27T12:26:52.539Z,540
2016-09-27T12:27:52.539Z,550
2016-09-27T12:28:52.515Z,555
2016-09-27T12:29:52.496Z,500
2016-09-27T12:30:52.494Z,480
2016-09-27T12:31:52.482Z,490
2016-09-27T12:32:52.458Z,475
2016-09-27T12:33:52.439Z,465
2016-09-27T12:34:52.423Z,525
2016-09-27T12:35:52.418Z,565
2016-09-27T12:36:52.416Z,570
2016-09-27T12:37:52.374Z,620
2016-09-27T12:38:52.364Z,630
2016-09-27T12:39:52.406Z,610
2016-09-27T12:40:52.331Z,600
2016-09-27T12:41:52.319Z,585
2016-09-27T12:42:52.305Z,565
2016-09-27T12:43:52.285Z,545
2016-09-27T12:44:52.266Z,560
2016-09-27T12:45:52.251Z,600
2016-09-27T12:46:52.882Z,630
2016-09-27T12:47:52.217Z,645
2016-09-27T12:48:52.205Z,650
2016-09-27T12:49:52.189Z,650
2016-09-27T12:50:52.180Z,635
2016-09-27T12:51:52.152Z,615
2016-09-27T12:52:52.150Z,585
2016-09-27T12:53:52.140Z,575
2016-09-27T12:54:52.111Z,575
2016-09-27T12:55:52.100Z,590
2016-09-27T12:56:52.106Z,615
2016-09-27T12:57:52.072Z,630
2016-09-27T12:58:52.061Z,635
2016-09-27T12:59:52.044Z,620
2016-09-27T13:00:52.031Z,595
2016-09-27T13:01:52.010Z,580
2016-09-27T13:02:52.313Z,535
2016-09-27T13:03:51.977Z,510
2016-09-27T13:04:51.963Z,535
2016-09-27T13:05:51.954Z,565
2016-09-27T13:06:51.935Z,580
2016-09-27T13:07:52.320Z,585
2016-09-27T13:08:51.977Z,575
2016-09-27T13:09:52.252Z,555
2016-09-27T13:10:52.866Z,530
2016-09-27T13:11:51.882Z,530
2016-09-27T13:12:51.841Z,575
2016-09-27T13:13:51.835Z,585
2016-09-27T13:14:52.121Z,645
2016-09-27T13:15:51.817Z,700
2016-09-27T13:16:51.803Z,675
2016-09-27T13:17:51.781Z,625
2016-09-27T13:18:51.800Z,605
2016-09-27T13:19:51.748Z,580
2016-09-27T13:20:52.039Z,545
2016-09-27T13:21:52.342Z,525
2016-09-27T13:22:51.707Z,515
2016-09-27T13:23:51.700Z,510
2016-09-27T13:24:51.686Z,495
2016-09-27T13:25:51.649Z,480
2016-09-27T13:26:51.641Z,490
2016-09-27T13:27:51.625Z,520
2016-09-27T13:28:51.629Z,530
2016-09-27T13:29:51.903Z,515
2016-09-27T13:30:51.595Z,495
2016-09-27T13:31:51.577Z,500
2016-09-27T13:32:51.865Z,545
2016-09-27T13:33:51.543Z,550
2016-09-27T13:34:51.520Z,560
2016-09-27T13:35:51.525Z,570
2016-09-27T13:36:51.493Z,570
2016-09-27T13:37:51.476Z,580
2016-09-27T13:38:51.785Z,600
2016-09-27T13:39:51.447Z,630
2016-09-27T13:40:51.443Z,660
2016-09-27T13:41:51.426Z,660
2016-09-27T13:42:51.410Z,660
2016-09-27T13:43:51.397Z,670
2016-09-27T13:44:51.384Z,655
2016-09-27T13:45:51.362Z,650
2016-09-27T13:46:51.345Z,635
2016-09-27T13:47:51.334Z,615
2016-09-27T13:48:51.324Z,595
2016-09-27T13:49:51.306Z,565
2016-09-27T13:50:51.384Z,540
2016-09-27T13:51:51.293Z,530
2016-09-27T13:52:51.258Z,515
2016-09-27T13:53:51.251Z,500
2016-09-27T13:54:51.235Z,495
2016-09-27T13:55:51.220Z,495
2016-09-27T13:56:51.204Z,495
2016-09-27T13:57:51.197Z,480
2016-09-27T13:58:51.168Z,465
2016-09-27T13:59:51.163Z,455
2016-09-27T14:00:51.143Z,435
2016-09-27T14:01:51.132Z,430
2016-09-27T14:02:51.124Z,425
2016-09-27T14:03:51.105Z,415
2016-09-27T14:04:51.083Z,420
2016-09-27T14:05:51.068Z,420
2016-09-27T14:06:51.073Z,430
2016-09-27T14:07:51.049Z,435
2016-09-27T14:08:51.024Z,440